Time;durP1;ratioP1;P1;durP2;ratioP2;P2;SDS_P1;SDS_P2;PMS_P1;PMS_P2;Temp;Humidity;BMP_temperature;BMP_pressure;BME280_temperature;BME280_humidity;BME280_pressure;Samples;Min_cycle;Max_cycle;Signal;HPM_P1;HPM_P2
2022/10/18 00:01:06;;;;;;;41.00;11.45;;;;;;;17.50;72.43;101917.38;4972184;28;119665;-80
2022/10/18 00:03:33;;;;;;;35.83;11.57;;;;;;;17.50;72.37;101915.38;4968975;28;120234;-80
2022/10/18 00:06:00;;;;;;;42.42;11.48;;;;;;;17.51;72.20;101918.97;4978174;28;119494;-77
2022/10/18 00:08:26;;;;;;;37.20;11.55;;;;;;;17.49;72.02;101921.41;4974400;28;119748;-80
2022/10/18 00:10:52;;;;;;;38.67;12.10;;;;;;;17.44;72.18;101916.50;4951902;28;119940;-77
2022/10/18 00:13:18;;;;;;;41.58;12.38;;;;;;;17.42;71.94;101918.97;4953482;28;120225;-77
2022/10/18 00:15:50;;;;;;;40.85;11.52;;;;;;;17.42;72.20;101927.28;4970086;28;119542;-77
2022/10/18 00:18:17;;;;;;;42.67;12.48;;;;;;;17.38;72.19;101921.91;4975070;28;120747;-77
2022/10/18 00:20:56;;;;;;;43.78;12.70;;;;;;;17.36;71.85;101916.06;4972162;28;119664;-80
2022/10/18 00:23:21;;;;;;;38.17;12.27;;;;;;;17.35;72.19;101919.31;4970317;28;119890;-80
2022/10/18 00:25:47;;;;;;;38.92;12.48;;;;;;;17.33;72.03;101917.00;4948040;28;120309;-77
2022/10/18 00:28:13;;;;;;;51.15;13.57;;;;;;;17.32;72.05;101914.72;4951846;28;120030;-77
2022/10/18 00:30:38;;;;;;;45.22;13.77;;;;;;;17.30;72.21;101919.97;4967765;28;120348;-77
2022/10/18 00:33:04;;;;;;;49.53;14.55;;;;;;;17.27;72.13;101918.88;4975522;28;121268;-77
2022/10/18 00:35:30;;;;;;;41.78;14.10;;;;;;;17.27;72.18;101929.19;4957183;28;120230;-80
2022/10/18 00:37:56;;;;;;;40.85;14.93;;;;;;;17.21;72.36;101928.28;4966029;28;120101;-77
2022/10/18 00:40:21;;;;;;;39.80;14.95;;;;;;;17.21;72.37;101929.06;4978710;28;119622;-77
2022/10/18 00:42:47;;;;;;;43.80;15.45;;;;;;;17.21;72.32;101942.16;4971728;28;119627;-80
2022/10/18 00:45:17;;;;;;;41.97;15.05;;;;;;;17.22;72.32;101940.91;4950886;28;120114;-77
2022/10/18 00:47:46;;;;;;;49.72;15.88;;;;;;;17.19;72.41;101943.38;4972378;28;119852;-76
2022/10/18 00:50:12;;;;;;;48.83;15.77;;;;;;;17.15;72.31;101934.47;4973390;28;120331;-77
2022/10/18 00:52:46;;;;;;;41.20;14.93;;;;;;;17.13;72.61;101934.16;4952861;28;119615;-79
2022/10/18 00:55:12;;;;;;;43.38;15.23;;;;;;;17.11;72.39;101939.41;4960443;28;119678;-75
2022/10/18 00:57:42;;;;;;;47.33;15.57;;;;;;;17.12;72.13;101940.94;4964999;28;120443;-80
2022/10/18 01:00:08;;;;;;;46.38;15.02;;;;;;;17.11;72.32;101942.19;4976762;28;119736;-77
2022/10/18 01:02:41;;;;;;;44.33;14.95;;;;;;;17.09;72.35;101941.88;4979288;28;119915;-77
2022/10/18 01:05:13;;;;;;;49.77;14.97;;;;;;;17.08;72.13;101940.34;4966096;28;119697;-77
2022/10/18 01:08:06;;;;;;;42.15;15.10;;;;;;;17.07;72.26;101938.81;4935200;28;120335;-77
2022/10/18 01:10:32;;;;;;;49.00;15.68;;;;;;;17.03;72.32;101932.63;4960731;28;120129;-77
2022/10/18 01:13:21;;;;;;;52.13;16.30;;;;;;;17.02;72.55;101933.88;4968540;28;119377;-77
2022/10/18 01:16:31;;;;;;;54.42;15.05;;;;;;;16.94;72.28;101921.56;4964739;28;119555;-80
2022/10/18 01:19:28;;;;;;;52.08;15.85;;;;;;;16.94;72.41;101926.34;4909105;28;119825;-80
2022/10/18 01:22:04;;;;;;;47.78;14.88;;;;;;;16.94;72.80;101921.56;4889157;28;120411;-77
2022/10/18 01:24:54;;;;;;;40.90;14.52;;;;;;;16.92;72.62;101910.19;4928528;28;119819;-77
2022/10/18 01:27:31;;;;;;;47.35;14.23;;;;;;;16.93;72.49;101920.03;4925004;28;119858;-80
2022/10/18 01:30:33;;;;;;;37.85;13.25;;;;;;;16.91;72.66;101930.03;4909300;28;119802;-77
2022/10/18 01:33:20;;;;;;;42.05;12.60;;;;;;;16.89;72.63;101944.38;4904784;28;120243;-77
2022/10/18 01:35:55;;;;;;;43.85;12.32;;;;;;;16.83;72.87;101929.59;4925770;28;120451;-77
2022/10/18 01:38:24;;;;;;;42.08;13.00;;;;;;;16.84;72.78;101940.22;4929116;28;120185;-77
2022/10/18 01:40:51;;;;;;;43.75;12.75;;;;;;;16.82;72.51;101936.38;4921491;28;120122;-77
2022/10/18 01:43:20;;;;;;;43.70;13.88;;;;;;;16.75;72.81;101926.34;4921409;28;119607;-79
2022/10/18 01:45:46;;;;;;;46.33;15.05;;;;;;;16.77;72.60;101929.44;4922819;28;120202;-77
2022/10/18 01:48:13;;;;;;;40.30;14.75;;;;;;;16.82;72.55;101939.91;4925384;28;120295;-77
2022/10/18 01:50:39;;;;;;;51.38;15.63;;;;;;;16.78;72.56;101933.75;4960366;28;119816;-77
2022/10/18 01:53:04;;;;;;;40.92;16.00;;;;;;;16.75;72.37;101937.44;4962044;28;119332;-80
2022/10/18 01:55:44;;;;;;;43.25;15.93;;;;;;;16.74;72.15;101943.44;4966152;28;120098;-80
2022/10/18 01:58:21;;;;;;;38.50;15.48;;;;;;;16.71;72.14;101942.38;4953101;28;122241;-79
2022/10/18 02:00:54;;;;;;;39.78;16.00;;;;;;;16.67;72.21;101941.75;4968575;28;119435;-80
2022/10/18 02:03:22;;;;;;;41.08;15.45;;;;;;;16.59;72.00;101934.97;4967536;28;119529;-79
2022/10/18 02:05:53;;;;;;;40.38;16.98;;;;;;;16.61;72.03;101940.81;4977585;28;119917;-77
2022/10/18 02:08:36;;;;;;;37.95;15.88;;;;;;;16.55;72.03;101940.63;4976835;28;118773;-79
2022/10/18 02:11:06;;;;;;;39.10;16.73;;;;;;;16.51;71.76;101934.50;4969125;28;119539;-77
2022/10/18 02:13:37;;;;;;;49.95;16.48;;;;;;;16.45;71.86;101930.81;4950476;28;121188;-80
2022/10/18 02:16:08;;;;;;;41.15;16.58;;;;;;;16.43;71.84;101927.72;4948950;28;119777;-79
2022/10/18 02:18:57;;;;;;;53.10;17.55;;;;;;;16.39;71.48;101921.56;4968731;28;119919;-80
2022/10/18 02:21:24;;;;;;;49.22;18.08;;;;;;;16.36;71.89;101921.72;4986286;28;120071;-79
2022/10/18 02:23:59;;;;;;;46.08;18.73;;;;;;;16.30;71.75;101923.56;4969061;28;119943;-77
2022/10/18 02:26:34;;;;;;;44.15;18.80;;;;;;;16.32;72.07;101926.63;4962713;28;119833;-79
2022/10/18 02:29:00;;;;;;;49.22;18.77;;;;;;;16.25;72.15;101913.84;4949322;28;120052;-77
2022/10/18 02:31:47;;;;;;;49.75;19.35;;;;;;;16.26;72.02;101918.16;4966674;28;120243;-79
2022/10/18 02:34:25;;;;;;;49.38;18.73;;;;;;;16.22;72.04;101912.78;4960617;28;120258;-79
2022/10/18 02:36:54;;;;;;;56.10;18.15;;;;;;;16.19;72.13;101919.25;4964380;28;119704;-79
2022/10/18 02:39:28;;;;;;;48.80;19.27;;;;;;;16.13;72.23;101918.31;4956300;28;119705;-77
2022/10/18 02:42:05;;;;;;;38.60;19.20;;;;;;;16.14;72.26;101921.84;4953274;28;119971;-80
2022/10/18 02:44:33;;;;;;;45.40;19.42;;;;;;;16.10;72.38;101926.78;4960983;28;120079;-79
2022/10/18 02:46:59;;;;;;;68.18;21.63;;;;;;;16.12;72.21;101938.16;4945482;28;120290;-79
2022/10/18 02:49:24;;;;;;;51.70;21.08;;;;;;;16.12;72.55;101936.16;4976015;28;119957;-77
2022/10/18 02:51:50;;;;;;;46.13;20.55;;;;;;;16.10;72.44;101921.25;4969295;28;120564;-77
2022/10/18 02:54:16;;;;;;;54.33;21.38;;;;;;;16.06;72.52;101926.91;4950748;28;120484;-77
2022/10/18 02:56:41;;;;;;;55.25;21.13;;;;;;;16.10;72.69;101937.84;4951310;28;121416;-79
2022/10/18 02:59:07;;;;;;;59.08;20.60;;;;;;;16.10;72.49;101940.63;4974468;28;119397;-77
2022/10/18 03:01:34;;;;;;;58.55;20.55;;;;;;;16.10;72.56;101938.63;4957835;28;120072;-79
2022/10/18 03:04:01;;;;;;;55.20;20.67;;;;;;;16.09;72.75;101930.75;4964842;28;119591;-79
2022/10/18 03:06:30;;;;;;;62.50;20.23;;;;;;;16.13;72.81;101937.69;4974799;28;119624;-77
2022/10/18 03:08:56;;;;;;;53.97;20.10;;;;;;;16.16;73.16;101931.25;4950519;28;120024;-77
2022/10/18 03:11:21;;;;;;;61.97;20.13;;;;;;;16.15;73.64;101923.41;4969737;28;119577;-78
2022/10/18 03:13:49;;;;;;;58.97;20.38;;;;;;;16.23;73.57;101930.94;4953241;28;119959;-79
2022/10/18 03:16:14;;;;;;;61.67;20.65;;;;;;;16.26;73.48;101927.25;4953617;28;121278;-79
2022/10/18 03:18:40;;;;;;;63.30;20.10;;;;;;;16.34;73.75;101938.81;4960812;28;119516;-79
2022/10/18 03:21:07;;;;;;;57.85;21.02;;;;;;;16.37;73.94;101937.88;4968615;28;119459;-78
2022/10/18 03:23:33;;;;;;;62.67;21.55;;;;;;;16.39;73.81;101931.88;4969705;28;119642;-79
2022/10/18 03:25:59;;;;;;;59.38;22.05;;;;;;;16.47;73.93;101938.66;4972920;28;119447;-79
2022/10/18 03:28:30;;;;;;;62.88;23.27;;;;;;;16.50;73.74;101935.72;4971089;28;119508;-79
2022/10/18 03:31:03;;;;;;;70.55;24.08;;;;;;;16.50;74.00;101932.94;4975779;28;119975;-79
2022/10/18 03:33:30;;;;;;;70.15;24.08;;;;;;;16.57;74.08;101940.97;4970292;28;119934;-79
2022/10/18 03:35:56;;;;;;;68.28;24.48;;;;;;;16.60;74.02;101946.81;4974026;28;119881;-79
2022/10/18 03:38:21;;;;;;;70.20;25.00;;;;;;;16.60;73.93;101942.06;4968189;28;119627;-78
2022/10/18 03:40:47;;;;;;;68.22;24.73;;;;;;;16.67;73.94;101947.31;4980249;28;119649;-79
2022/10/18 03:43:13;;;;;;;78.00;24.80;;;;;;;16.70;73.98;101940.06;4968537;28;120350;-79
2022/10/18 03:45:39;;;;;;;68.45;25.05;;;;;;;16.74;74.10;101951.75;4955492;28;120892;-79
2022/10/18 03:48:09;;;;;;;72.93;23.45;;;;;;;16.76;74.21;101940.97;4972561;28;120042;-79
2022/10/18 03:50:35;;;;;;;67.07;22.23;;;;;;;16.82;74.41;101945.47;4954359;28;120356;-79
2022/10/18 03:53:01;;;;;;;76.43;23.98;;;;;;;16.86;74.48;101939.75;4955236;28;119656;-79
2022/10/18 03:55:26;;;;;;;76.75;23.48;;;;;;;16.91;74.45;101938.38;4982447;28;119920;-79
2022/10/18 03:57:52;;;;;;;68.72;21.27;;;;;;;16.93;74.48;101942.19;4973126;28;120514;-78
2022/10/18 04:00:37;;;;;;;67.07;21.88;;;;;;;16.98;74.32;101941.56;4974770;28;119717;-79
2022/10/18 04:03:03;;;;;;;65.97;20.92;;;;;;;16.99;74.41;101937.56;4975116;28;119717;-78
2022/10/18 04:05:30;;;;;;;73.97;22.70;;;;;;;17.03;74.31;101940.94;4962823;28;119550;-78
2022/10/18 04:07:56;;;;;;;68.00;21.30;;;;;;;17.07;74.52;101936.03;4971355;28;120007;-79
2022/10/18 04:10:22;;;;;;;69.47;21.15;;;;;;;17.08;74.29;101945.88;4958933;28;120289;-79
2022/10/18 04:12:48;;;;;;;69.53;20.48;;;;;;;17.11;74.48;101942.19;4963811;28;119379;-80
2022/10/18 04:15:13;;;;;;;65.25;20.65;;;;;;;17.13;74.48;101942.47;4973590;28;120158;-79
2022/10/18 04:17:39;;;;;;;64.90;20.65;;;;;;;17.13;74.68;101948.03;4974113;28;119680;-79
2022/10/18 04:20:05;;;;;;;68.45;20.42;;;;;;;17.21;74.51;101944.91;4982387;28;119480;-79
2022/10/18 04:22:31;;;;;;;65.03;19.02;;;;;;;17.16;74.61;101938.78;4972951;28;119709;-79
2022/10/18 04:24:57;;;;;;;63.15;20.98;;;;;;;17.24;74.57;101944.00;4953908;28;120950;-79
2022/10/18 04:27:23;;;;;;;64.78;20.42;;;;;;;17.26;74.41;101942.28;4972028;28;120697;-79
2022/10/18 04:29:48;;;;;;;62.97;19.77;;;;;;;17.25;74.22;101935.19;4973419;28;119768;-79
2022/10/18 04:32:14;;;;;;;64.57;20.92;;;;;;;17.31;74.10;101943.69;4969410;28;119795;-79
2022/10/18 04:34:43;;;;;;;56.08;19.40;;;;;;;17.30;74.13;101934.59;4972554;28;120171;-79
2022/10/18 04:37:11;;;;;;;62.08;19.92;;;;;;;17.30;74.30;101931.06;4962966;28;119649;-78
2022/10/18 04:39:37;;;;;;;62.28;20.13;;;;;;;17.31;74.01;101922.25;4978011;28;119864;-79
2022/10/18 04:42:02;;;;;;;59.20;20.10;;;;;;;17.31;74.08;101915.94;4965074;28;119567;-79
2022/10/18 04:44:28;;;;;;;59.03;20.00;;;;;;;17.24;73.82;101894.84;4954438;28;120255;-79
2022/10/18 04:46:53;;;;;;;59.28;18.55;;;;;;;17.31;74.12;101913.19;4969831;28;119781;-79
2022/10/18 04:49:45;;;;;;;54.63;18.27;;;;;;;17.36;73.87;101923.63;4953821;28;119433;-79
2022/10/18 04:52:11;;;;;;;62.03;18.25;;;;;;;17.35;74.01;101919.31;4969332;28;119721;-78
2022/10/18 04:54:37;;;;;;;62.10;19.17;;;;;;;17.36;73.90;101918.09;4937123;28;122794;-79
2022/10/18 04:57:03;;;;;;;57.53;18.30;;;;;;;17.40;73.77;101932.53;4955274;28;120506;-78
2022/10/18 04:59:28;;;;;;;61.30;19.98;;;;;;;17.38;73.83;101923.94;4955460;28;119498;-79
2022/10/18 05:01:54;;;;;;;69.25;19.25;;;;;;;17.40;73.78;101921.44;4973716;28;120665;-79
2022/10/18 05:04:20;;;;;;;62.45;19.33;;;;;;;17.34;73.81;101915.78;4971563;28;120056;-79
2022/10/18 05:06:53;;;;;;;61.75;19.67;;;;;;;17.38;73.81;101926.69;4974636;28;120135;-78
2022/10/18 05:09:21;;;;;;;61.05;19.92;;;;;;;17.38;73.80;101926.69;4964372;28;119715;-79
2022/10/18 05:11:46;;;;;;;58.78;19.60;;;;;;;17.39;73.78;101928.22;4974149;28;119591;-78
2022/10/18 05:14:12;;;;;;;59.20;19.60;;;;;;;17.37;73.60;101920.38;4953828;28;119507;-79
2022/10/18 05:16:38;;;;;;;61.38;20.75;;;;;;;17.39;73.89;101914.38;4972254;28;119790;-79
2022/10/18 05:19:04;;;;;;;57.92;19.20;;;;;;;17.38;73.81;101919.16;4972516;28;120066;-79
2022/10/18 05:21:33;;;;;;;59.50;18.95;;;;;;;17.39;73.96;101917.91;4952600;28;120031;-78
2022/10/18 05:23:59;;;;;;;61.00;19.63;;;;;;;17.36;73.64;101915.31;4971503;28;120593;-78
2022/10/18 05:26:25;;;;;;;52.33;19.20;;;;;;;17.38;73.52;101919.16;4977204;28;120244;-79
2022/10/18 05:28:50;;;;;;;49.05;18.27;;;;;;;17.38;73.57;101923.94;4966904;28;119887;-78
2022/10/18 05:31:16;;;;;;;55.60;18.70;;;;;;;17.38;73.44;101918.38;4971811;28;119601;-77
2022/10/18 05:33:42;;;;;;;50.20;18.08;;;;;;;17.35;73.33;101911.00;4972603;28;120535;-79
2022/10/18 05:36:08;;;;;;;55.30;17.63;;;;;;;17.28;73.15;101903.03;4979898;28;119734;-77
2022/10/18 05:38:36;;;;;;;51.20;18.50;;;;;;;17.28;73.06;101922.44;4951903;28;120981;-78
2022/10/18 05:41:03;;;;;;;54.13;17.58;;;;;;;17.26;73.14;101917.31;4974709;28;120474;-80
2022/10/18 05:43:29;;;;;;;56.25;18.38;;;;;;;17.21;72.80;101915.19;4969694;28;120063;-79
2022/10/18 05:45:55;;;;;;;53.25;19.05;;;;;;;17.18;73.10;101914.13;4952421;28;120269;-77
2022/10/18 05:48:20;;;;;;;57.28;18.50;;;;;;;17.15;72.83;101898.41;4982493;28;119704;-79
2022/10/18 05:51:06;;;;;;;52.83;18.50;;;;;;;17.14;72.82;101909.97;4954693;28;119998;-79
2022/10/18 05:53:52;;;;;;;59.28;19.20;;;;;;;17.13;72.81;101914.75;4955284;28;121054;-79
2022/10/18 05:56:17;;;;;;;50.50;19.17;;;;;;;17.07;73.02;101915.84;4966149;28;119312;-79
2022/10/18 05:58:43;;;;;;;56.67;21.13;;;;;;;17.09;72.93;101925.25;4959491;28;119605;-79
2022/10/18 06:01:09;;;;;;;59.88;20.52;;;;;;;17.08;73.14;101931.25;4970591;28;119970;-79
2022/10/18 06:03:35;;;;;;;59.95;22.60;;;;;;;17.06;73.41;101934.50;4966620;28;119488;-78
2022/10/18 06:06:03;;;;;;;48.47;17.52;;;;;;;17.06;73.38;101934.50;4954966;28;121223;-79
2022/10/18 06:08:29;;;;;;;61.83;21.92;;;;;;;17.04;73.72;101928.66;4973101;28;119937;-78
2022/10/18 06:10:55;;;;;;;64.93;23.17;;;;;;;17.07;73.46;101938.81;4957429;28;119997;-79
2022/10/18 06:13:23;;;;;;;69.75;23.42;;;;;;;17.10;73.59;101937.09;4940613;28;120317;-80
2022/10/18 06:15:56;;;;;;;61.60;21.70;;;;;;;17.08;73.50;101947.88;4959255;28;119605;-80
2022/10/18 06:18:22;;;;;;;65.05;23.15;;;;;;;17.02;73.41;101933.88;4975049;28;119545;-79
2022/10/18 06:20:47;;;;;;;62.22;21.83;;;;;;;17.09;73.17;101944.66;4964366;28;120120;-80
2022/10/18 06:23:13;;;;;;;67.25;23.02;;;;;;;17.05;73.07;101932.97;4959783;28;119780;-79
2022/10/18 06:25:39;;;;;;;73.05;23.20;;;;;;;17.07;73.08;101944.34;4952789;28;119883;-79
2022/10/18 06:28:05;;;;;;;65.13;22.05;;;;;;;17.04;72.88;101936.97;4954431;28;119766;-79
2022/10/18 06:30:32;;;;;;;62.15;21.13;;;;;;;17.03;72.80;101937.41;4966520;28;120063;-80
2022/10/18 06:32:59;;;;;;;60.45;22.08;;;;;;;16.97;72.89;101948.34;4970993;28;120132;-79
2022/10/18 06:35:25;;;;;;;68.50;21.35;;;;;;;17.00;72.82;101941.09;4968768;28;119649;-80
2022/10/18 06:37:52;;;;;;;62.83;20.67;;;;;;;16.99;72.93;101948.66;4969473;28;120060;-80
2022/10/18 06:40:17;;;;;;;48.75;19.42;;;;;;;17.00;72.95;101952.97;4963025;28;119846;-79
2022/10/18 06:42:44;;;;;;;66.13;20.02;;;;;;;17.00;72.86;101949.44;4948775;28;120119;-79
2022/10/18 06:45:10;;;;;;;61.47;19.80;;;;;;;16.93;72.94;101936.66;4970996;28;119676;-79
2022/10/18 06:47:36;;;;;;;55.28;18.55;;;;;;;16.98;72.52;101955.44;4954121;28;119535;-78
2022/10/18 06:50:02;;;;;;;57.33;18.25;;;;;;;16.97;72.80;101959.44;4952600;28;119664;-79
2022/10/18 06:52:27;;;;;;;62.22;18.92;;;;;;;16.97;72.54;101959.44;4969106;28;119664;-79
2022/10/18 06:55:01;;;;;;;50.95;18.92;;;;;;;16.97;72.74;101969.75;4973737;28;120509;-80
2022/10/18 06:57:30;;;;;;;53.17;17.30;;;;;;;16.97;72.82;101969.75;4970239;28;119445;-79
2022/10/18 07:00:04;;;;;;;66.13;17.35;;;;;;;16.96;72.55;101979.31;4955465;28;120921;-79
2022/10/18 07:02:49;;;;;;;49.42;18.10;;;;;;;16.94;72.87;101965.91;4972078;28;119886;-79
2022/10/18 07:05:41;;;;;;;58.25;17.77;;;;;;;16.95;72.66;101983.31;4957346;28;120137;-79
2022/10/18 07:08:07;;;;;;;56.42;17.23;;;;;;;16.94;72.73;101982.53;4955287;28;119944;-79
2022/10/18 07:10:33;;;;;;;55.85;16.67;;;;;;;16.92;72.41;101978.69;4971352;28;119911;-79
2022/10/18 07:12:58;;;;;;;53.05;16.55;;;;;;;16.88;72.61;101978.88;4959527;28;120433;-79
2022/10/18 07:15:24;;;;;;;44.80;16.20;;;;;;;16.84;72.23;101978.25;4961450;28;120567;-78
2022/10/18 07:17:50;;;;;;;47.60;15.93;;;;;;;16.79;72.67;101976.84;4969820;28;120289;-79
2022/10/18 07:20:16;;;;;;;41.05;14.40;;;;;;;16.84;72.95;101989.34;4949422;28;119923;-79
2022/10/18 07:22:41;;;;;;;62.55;15.98;;;;;;;16.77;72.79;101987.63;4929895;28;120644;-80
2022/10/18 07:25:07;;;;;;;51.22;15.48;;;;;;;16.76;72.87;101986.09;4960883;28;119785;-77
2022/10/18 07:27:38;;;;;;;53.95;14.63;;;;;;;16.78;73.01;102002.25;4962463;28;120479;-77
2022/10/18 07:30:06;;;;;;;46.90;14.13;;;;;;;16.76;72.71;101993.63;4944823;28;119846;-77
2022/10/18 07:32:32;;;;;;;41.83;12.80;;;;;;;16.76;72.69;101994.41;4943129;28;121246;-77
2022/10/18 07:34:57;;;;;;;46.85;13.20;;;;;;;16.73;72.84;101989.00;4961150;28;120037;-77
2022/10/18 07:37:23;;;;;;;50.08;12.02;;;;;;;16.75;73.14;101992.84;4966215;28;120065;-76
2022/10/18 07:39:49;;;;;;;42.08;11.20;;;;;;;16.84;73.28;102012.28;4963983;28;120206;-79
2022/10/18 07:42:15;;;;;;;48.08;11.70;;;;;;;16.93;73.39;102011.50;4947304;28;119578;-79
2022/10/18 07:44:43;;;;;;;47.72;10.40;;;;;;;17.02;73.32;102027.34;4963080;28;119589;-80
2022/10/18 07:47:08;;;;;;;44.22;9.70;;;;;;;17.10;73.44;102026.59;4964823;28;120129;-79
2022/10/18 07:49:34;;;;;;;43.20;9.40;;;;;;;17.18;73.28;102033.34;4963648;28;120747;-78
2022/10/18 07:52:00;;;;;;;36.15;8.43;;;;;;;17.21;73.41;102023.31;4949608;28;120480;-83
2022/10/18 07:54:25;;;;;;;35.85;8.90;;;;;;;17.33;73.33;102027.19;4944730;28;122782;-79
2022/10/18 07:56:51;;;;;;;43.20;8.20;;;;;;;17.35;73.22;102027.47;4961823;28;119914;-81
2022/10/18 07:59:17;;;;;;;38.58;8.13;;;;;;;17.44;72.83;102031.00;4965591;28;119628;-81
2022/10/18 08:01:42;;;;;;;33.63;7.63;;;;;;;17.46;72.74;102030.53;4943653;28;120064;-81
2022/10/18 08:04:09;;;;;;;33.72;7.28;;;;;;;17.46;72.65;102034.06;4964479;28;120644;-81
2022/10/18 08:06:34;;;;;;;37.83;6.75;;;;;;;17.54;72.79;102040.09;4946082;28;121941;-80
2022/10/18 08:09:00;;;;;;;29.75;6.00;;;;;;;17.58;72.78;102035.13;4945206;28;119726;-80
2022/10/18 08:11:26;;;;;;;32.33;6.15;;;;;;;17.60;72.67;102021.56;4948688;28;121127;-81
2022/10/18 08:13:52;;;;;;;25.40;5.35;;;;;;;17.69;72.50;102034.66;4946104;28;122550;-80
2022/10/18 08:16:20;;;;;;;24.85;5.75;;;;;;;17.74;72.43;102029.28;4964027;28;119700;-81
2022/10/18 08:18:46;;;;;;;32.40;5.88;;;;;;;17.76;72.58;102032.34;4963879;28;120100;-81
2022/10/18 08:21:13;;;;;;;34.83;5.82;;;;;;;17.89;72.46;102031.38;4969356;28;120649;-81
2022/10/18 08:23:40;;;;;;;33.70;5.20;;;;;;;17.98;72.23;102022.97;4963653;28;119866;-81
2022/10/18 08:26:09;;;;;;;24.05;4.60;;;;;;;18.09;72.00;102024.03;4963218;28;119661;-81
2022/10/18 08:28:35;;;;;;;29.30;4.93;;;;;;;18.18;71.71;102033.53;4941451;28;119608;-81
2022/10/18 08:31:10;;;;;;;24.63;5.00;;;;;;;18.21;71.57;102036.13;4944615;28;119905;-81
2022/10/18 08:33:36;;;;;;;25.73;4.15;;;;;;;18.21;70.51;102033.38;4944339;28;120085;-80
2022/10/18 08:36:06;;;;;;;28.33;5.05;;;;;;;18.22;70.44;102036.94;4966675;28;119540;-81
2022/10/18 08:38:37;;;;;;;20.85;4.25;;;;;;;18.12;70.54;102019.53;4965355;28;119800;-81
2022/10/18 08:41:30;;;;;;;31.80;4.32;;;;;;;18.28;70.51;102030.25;4980621;28;119598;-81
2022/10/18 08:44:22;;;;;;;24.80;4.18;;;;;;;18.34;70.67;102025.59;4950926;28;119678;-81
2022/10/18 08:46:51;;;;;;;27.40;4.40;;;;;;;18.44;70.37;102031.06;4964533;28;119624;-81
2022/10/18 08:49:44;;;;;;;33.60;4.35;;;;;;;18.50;70.14;102029.22;4957073;28;120054;-81
2022/10/18 08:52:19;;;;;;;20.20;3.88;;;;;;;18.56;70.28;102030.09;4963721;28;119801;-81
2022/10/18 08:55:00;;;;;;;21.70;3.80;;;;;;;18.63;69.48;102032.53;4947178;28;121979;-81
2022/10/18 08:57:27;;;;;;;25.38;5.10;;;;;;;18.62;68.91;102031.75;4933525;28;119686;-81
2022/10/18 08:59:55;;;;;;;27.50;4.10;;;;;;;18.59;68.75;102032.69;4960808;28;119968;-81
2022/10/18 09:02:47;;;;;;;31.23;4.13;;;;;;;18.60;68.71;102031.44;4964583;28;120765;-81
2022/10/18 09:05:31;;;;;;;22.75;3.67;;;;;;;18.62;68.14;102031.75;4947293;28;127613;-81
2022/10/18 09:08:33;;;;;;;21.33;3.72;;;;;;;18.60;68.03;102033.44;4950244;28;120384;-81
2022/10/18 09:11:26;;;;;;;19.73;3.38;;;;;;;18.58;68.00;102035.94;4941559;28;121553;-81
2022/10/18 09:14:20;;;;;;;25.33;3.97;;;;;;;18.56;67.47;102049.53;4932053;28;120964;-81
2022/10/18 09:17:16;;;;;;;25.20;3.63;;;;;;;18.54;67.47;102049.25;4962329;28;120066;-81
2022/10/18 09:19:56;;;;;;;25.77;3.88;;;;;;;18.49;67.34;102049.91;4947083;28;120058;-81
2022/10/18 09:22:35;;;;;;;20.27;4.00;;;;;;;18.42;67.34;102051.00;4961396;28;119639;-80
2022/10/18 09:25:16;;;;;;;26.17;3.70;;;;;;;18.35;67.19;102040.25;4965929;28;120782;-81
2022/10/18 09:28:13;;;;;;;30.08;4.25;;;;;;;18.34;67.25;102047.81;4964318;28;119610;-81
2022/10/18 09:30:58;;;;;;;20.45;3.13;;;;;;;18.33;67.57;102054.59;4962567;28;120123;-81
2022/10/18 09:33:47;;;;;;;28.63;4.57;;;;;;;18.31;67.35;102051.53;4950702;28;122118;-81
2022/10/18 09:36:24;;;;;;;19.02;3.55;;;;;;;18.28;67.50;102049.69;4955344;28;119746;-80
2022/10/18 09:39:03;;;;;;;29.08;4.10;;;;;;;18.27;67.19;102047.41;4961733;28;119957;-80
2022/10/18 09:41:39;;;;;;;23.25;3.97;;;;;;;18.26;67.32;102049.41;4964231;28;119627;-81
2022/10/18 09:44:12;;;;;;;29.65;4.00;;;;;;;18.25;66.99;102038.78;4948136;28;119761;-80
2022/10/18 09:46:44;;;;;;;19.70;3.50;;;;;;;18.27;66.52;102039.84;4963955;28;119972;-81
2022/10/18 09:49:18;;;;;;;16.25;3.13;;;;;;;18.32;66.74;102058.63;4963497;28;119623;-81
2022/10/18 09:51:44;;;;;;;23.10;3.67;;;;;;;18.28;66.28;102051.72;4962074;28;120161;-81
2022/10/18 09:54:25;;;;;;;23.00;3.72;;;;;;;18.30;65.85;102058.34;4965353;28;120100;-80
2022/10/18 09:56:51;;;;;;;19.90;3.50;;;;;;;18.26;66.02;102054.97;4962711;28;119671;-81
2022/10/18 09:59:29;;;;;;;17.95;3.00;;;;;;;18.32;66.49;102057.84;4947549;28;119757;-81
2022/10/18 10:01:57;;;;;;;16.20;3.40;;;;;;;18.39;66.50;102052.72;4961853;28;119978;-80
2022/10/18 10:04:23;;;;;;;18.75;3.28;;;;;;;18.41;66.04;102053.00;4946008;28;121650;-80
2022/10/18 10:06:54;;;;;;;14.68;3.60;;;;;;;18.52;65.37;102046.19;4962643;28;120450;-81
2022/10/18 10:09:29;;;;;;;16.40;3.05;;;;;;;18.61;64.77;102060.78;4945784;28;119891;-80
2022/10/18 10:11:56;;;;;;;17.80;2.78;;;;;;;18.59;63.79;102054.16;4964774;28;119990;-81
2022/10/18 10:14:25;;;;;;;17.67;3.28;;;;;;;18.60;63.44;102053.66;4959536;28;119564;-81
2022/10/18 10:16:55;;;;;;;17.40;2.83;;;;;;;18.60;63.45;102062.00;4966700;28;119757;-80
2022/10/18 10:19:23;;;;;;;15.55;3.38;;;;;;;18.62;62.87;102061.53;4951203;28;120673;-80
2022/10/18 10:21:51;;;;;;;13.07;2.60;;;;;;;18.61;63.34;102066.31;4968302;28;120453;-80
2022/10/18 10:24:43;;;;;;;18.88;5.10;;;;;;;18.66;62.74;102065.69;4949595;28;121757;-80
2022/10/18 10:27:42;;;;;;;24.52;6.60;;;;;;;18.68;63.16;102059.66;4971347;28;119914;-80
2022/10/18 10:30:27;;;;;;;22.30;6.15;;;;;;;18.72;62.91;102059.50;4950018;28;119914;-80
2022/10/18 10:32:55;;;;;;;19.88;5.75;;;;;;;18.70;62.83;102057.19;4950043;28;122390;-81
2022/10/18 10:35:21;;;;;;;15.00;2.95;;;;;;;18.70;61.71;102060.75;4965472;28;120494;-79
2022/10/18 10:37:52;;;;;;;18.42;4.38;;;;;;;18.66;61.86;102065.69;4958634;28;120104;-78
2022/10/18 10:40:26;;;;;;;24.40;4.43;;;;;;;18.69;62.74;102061.19;4967245;28;119596;-79
2022/10/18 10:43:17;;;;;;;18.00;3.65;;;;;;;18.84;63.00;102067.59;4962862;28;119736;-82
2022/10/18 10:46:02;;;;;;;22.08;4.28;;;;;;;18.97;62.73;102070.91;4953916;28;119984;-82
2022/10/18 10:48:38;;;;;;;18.35;4.80;;;;;;;19.08;62.86;102064.78;4963526;28;120079;-82
2022/10/18 10:51:07;;;;;;;12.75;3.58;;;;;;;19.17;61.83;102069.50;4947353;28;118711;-82
2022/10/18 10:53:50;;;;;;;16.33;4.15;;;;;;;19.24;61.69;102066.34;4966203;28;120047;-82
2022/10/18 10:56:17;;;;;;;30.95;9.45;;;;;;;19.30;61.50;102070.00;4946898;28;121371;-82
2022/10/18 10:58:43;;;;;;;13.38;3.58;;;;;;;19.31;60.63;102055.59;4961238;28;119586;-82
2022/10/18 11:01:33;;;;;;;36.05;12.90;;;;;;;19.34;60.26;102062.22;4954013;28;120221;-81
2022/10/18 11:04:20;;;;;;;24.23;5.78;;;;;;;19.31;60.55;102063.19;4966022;28;120717;-81
2022/10/18 11:07:03;;;;;;;66.43;24.40;;;;;;;19.36;60.97;102070.09;4961310;28;119574;-82
2022/10/18 11:09:57;;;;;;;41.53;13.88;;;;;;;19.31;60.98;102072.28;4945237;28;120276;-82
2022/10/18 11:12:38;;;;;;;26.60;8.13;;;;;;;19.34;60.61;102070.56;4962676;28;119702;-81
2022/10/18 11:15:13;;;;;;;23.67;5.45;;;;;;;19.35;60.02;102065.78;4963726;28;120243;-82
2022/10/18 11:17:39;;;;;;;32.78;9.85;;;;;;;19.35;59.97;102055.41;4963419;28;119659;-82
2022/10/18 11:20:11;;;;;;;26.20;8.93;;;;;;;19.40;59.66;102065.91;4965197;28;120386;-81
2022/10/18 11:22:43;;;;;;;22.92;8.02;;;;;;;19.48;59.48;102072.59;4960937;28;120129;-83